THUNDERSTORM

Not for real navigation. The accuracy of this data is not assured See disclaimer for more information



ICAO NAME COUNTRY WIND Kt GUST Kt VIS m TEMP/DEW C BARO METAR
KADG ADRIAN LENAWEE COUNTY AIRPORT MI United States 4 0 1600 15/14 29.82 KADG 161153Z AUTO VRB04KT 1SM -RA BR OVC002 15/14 A2982 RMK AO2 RAB46 SLP099 P0000 60001 70031 T0150
PAKT KETCHIKAN INTERNATIONAL AIRPOR AK United States 6 0 1600 12/11 30.04 PAKT 161153Z AUTO 15006KT 1 0.25SM -RA BR OVC009 12/11 A3004 RMK RAB32 SLP174 P0001 60013 70028 T011
KTYR TYLER POUNDS FIELDS TX United States 13 18 1600 19/19 29.95 KTYR 161220Z 04013G18KT 1 0.75SM +TSRA BR OVC018 19/19 A2995 RMK AO2 LTG NOOP ALQDS TSB01 P0078 T019
KCOU COLUMBIA REGIONAL AIRPORT MO United States 14 18 1600 23/21 29.86 KCOU 161220Z 21014G18KT 1 0.5SM +TSRA BR BKN010 BKN014 OVC020 23/21 A2986 RMK AO2 LTG NOOP E-SW RAB0
VEJS Jamshedpur India 8 0 2500 37/24 29.41 VEJS 161200Z 27008KT 2500 TS SCT018 FEW030CB BKN100 37/24 Q0996

Show more